Aspen, Colorado
Current Conditions -  °F | °C
As of 11:53 AM on Monday 22 Dec 2014 (Local Time) from KASE Reporting Station
Overcast Overcast  
Wind Chill: 19°   Ceiling: 2300
Heat Index: 29°   Visibility: 7mi
Dew Point: 22°   Wind: 12mph
Humidity: 75%   Direction: 330°NNW
Pressure: 29.76"   Gusts: 22mph
Location:  39.19°N, 106.81°W
Report Text: KASE 221853Z 33010G19KT 7SM SCT015 BKN023 OVC033 M02/M06 A2976 RMK AO2 SNE32 SLP053 P0000 T10171056
Loading
Personal Weather Stations






























Interactive Weather Map New forecast layout! Learn more

10-Day Weather Forecast

Advertisements
Track Severe Weather on mobile